sensor_id;sensor_type;location;lat;lon;timestamp;temperature;humidity
47338;DHT22;33069;51.970;5.892;2023-05-16T00:01:14;9.00;81.00
47338;DHT22;33069;51.970;5.892;2023-05-16T00:03:41;9.00;81.00
47338;DHT22;33069;51.970;5.892;2023-05-16T00:06:07;9.10;80.60
47338;DHT22;33069;51.970;5.892;2023-05-16T00:08:34;9.10;80.30
47338;DHT22;33069;51.970;5.892;2023-05-16T00:10:59;9.00;80.80
47338;DHT22;33069;51.970;5.892;2023-05-16T00:13:26;9.10;80.30
47338;DHT22;33069;51.970;5.892;2023-05-16T00:15:52;9.00;80.30
47338;DHT22;33069;51.970;5.892;2023-05-16T00:18:50;9.00;80.50
47338;DHT22;33069;51.970;5.892;2023-05-16T00:21:17;8.90;81.20
47338;DHT22;33069;51.970;5.892;2023-05-16T00:23:42;8.90;80.90
47338;DHT22;33069;51.970;5.892;2023-05-16T00:26:08;8.90;80.50
47338;DHT22;33069;51.970;5.892;2023-05-16T00:28:34;8.90;80.50
47338;DHT22;33069;51.970;5.892;2023-05-16T00:31:00;8.90;80.00
47338;DHT22;33069;51.970;5.892;2023-05-16T00:33:26;8.80;79.90
47338;DHT22;33069;51.970;5.892;2023-05-16T00:35:52;8.80;80.20
47338;DHT22;33069;51.970;5.892;2023-05-16T00:38:18;8.70;80.30
47338;DHT22;33069;51.970;5.892;2023-05-16T00:40:44;8.80;80.10
47338;DHT22;33069;51.970;5.892;2023-05-16T00:43:11;8.80;80.00
47338;DHT22;33069;51.970;5.892;2023-05-16T00:45:37;8.70;80.10
47338;DHT22;33069;51.970;5.892;2023-05-16T00:48:03;8.60;80.30
47338;DHT22;33069;51.970;5.892;2023-05-16T00:50:29;8.60;80.10
47338;DHT22;33069;51.970;5.892;2023-05-16T00:52:55;8.60;80.10
47338;DHT22;33069;51.970;5.892;2023-05-16T00:58:42;8.40;80.30
47338;DHT22;33069;51.970;5.892;2023-05-16T01:01:08;8.40;80.70
47338;DHT22;33069;51.970;5.892;2023-05-16T01:03:34;8.30;80.80
47338;DHT22;33069;51.970;5.892;2023-05-16T01:06:02;8.20;80.80
47338;DHT22;33069;51.970;5.892;2023-05-16T01:08:27;8.30;80.90
47338;DHT22;33069;51.970;5.892;2023-05-16T01:13:35;8.20;80.60
47338;DHT22;33069;51.970;5.892;2023-05-16T01:16:14;8.20;80.40
47338;DHT22;33069;51.970;5.892;2023-05-16T01:18:51;8.20;80.70
47338;DHT22;33069;51.970;5.892;2023-05-16T01:24:26;8.10;80.60
47338;DHT22;33069;51.970;5.892;2023-05-16T01:26:58;8.10;80.90
47338;DHT22;33069;51.970;5.892;2023-05-16T01:29:24;8.00;81.20
47338;DHT22;33069;51.970;5.892;2023-05-16T01:31:50;8.00;81.50
47338;DHT22;33069;51.970;5.892;2023-05-16T01:34:16;7.90;81.40
47338;DHT22;33069;51.970;5.892;2023-05-16T01:39:35;7.80;81.90
47338;DHT22;33069;51.970;5.892;2023-05-16T01:47:49;7.80;81.50
47338;DHT22;33069;51.970;5.892;2023-05-16T01:50:17;7.80;81.80
47338;DHT22;33069;51.970;5.892;2023-05-16T01:52:49;7.60;81.80
47338;DHT22;33069;51.970;5.892;2023-05-16T01:55:21;7.80;81.80
47338;DHT22;33069;51.970;5.892;2023-05-16T01:57:48;7.70;81.70
47338;DHT22;33069;51.970;5.892;2023-05-16T02:00:14;7.70;81.60
47338;DHT22;33069;51.970;5.892;2023-05-16T02:02:40;7.60;82.00
47338;DHT22;33069;51.970;5.892;2023-05-16T02:08:34;7.60;81.70
47338;DHT22;33069;51.970;5.892;2023-05-16T02:11:00;7.60;81.60
47338;DHT22;33069;51.970;5.892;2023-05-16T02:13:25;7.70;81.20
47338;DHT22;33069;51.970;5.892;2023-05-16T02:15:51;7.50;81.50
47338;DHT22;33069;51.970;5.892;2023-05-16T02:18:17;7.40;81.90
47338;DHT22;33069;51.970;5.892;2023-05-16T02:20:43;7.60;82.30
47338;DHT22;33069;51.970;5.892;2023-05-16T02:23:09;7.60;81.80
47338;DHT22;33069;51.970;5.892;2023-05-16T02:25:35;7.60;81.70
47338;DHT22;33069;51.970;5.892;2023-05-16T02:28:01;7.60;81.70
47338;DHT22;33069;51.970;5.892;2023-05-16T02:30:26;7.40;81.60
47338;DHT22;33069;51.970;5.892;2023-05-16T02:32:52;7.50;81.70
47338;DHT22;33069;51.970;5.892;2023-05-16T02:35:18;7.40;81.90
47338;DHT22;33069;51.970;5.892;2023-05-16T02:37:44;7.40;82.10
47338;DHT22;33069;51.970;5.892;2023-05-16T02:40:10;7.50;82.50
47338;DHT22;33069;51.970;5.892;2023-05-16T02:42:36;7.60;82.20
47338;DHT22;33069;51.970;5.892;2023-05-16T02:45:02;7.70;82.10
47338;DHT22;33069;51.970;5.892;2023-05-16T02:47:28;7.50;82.00
47338;DHT22;33069;51.970;5.892;2023-05-16T02:49:54;7.50;82.60
47338;DHT22;33069;51.970;5.892;2023-05-16T02:52:20;7.30;82.90
47338;DHT22;33069;51.970;5.892;2023-05-16T02:54:46;7.30;83.40
47338;DHT22;33069;51.970;5.892;2023-05-16T02:57:12;7.40;83.90
47338;DHT22;33069;51.970;5.892;2023-05-16T02:59:38;7.30;84.10
47338;DHT22;33069;51.970;5.892;2023-05-16T03:02:03;7.30;84.20
47338;DHT22;33069;51.970;5.892;2023-05-16T03:04:29;7.30;84.50
47338;DHT22;33069;51.970;5.892;2023-05-16T03:06:55;7.40;84.60
47338;DHT22;33069;51.970;5.892;2023-05-16T03:09:20;7.30;84.60
47338;DHT22;33069;51.970;5.892;2023-05-16T03:11:46;7.30;84.70
47338;DHT22;33069;51.970;5.892;2023-05-16T03:17:34;7.30;84.40
47338;DHT22;33069;51.970;5.892;2023-05-16T03:20:00;7.40;84.00
47338;DHT22;33069;51.970;5.892;2023-05-16T03:22:25;7.30;83.50
47338;DHT22;33069;51.970;5.892;2023-05-16T03:24:51;7.40;83.30
47338;DHT22;33069;51.970;5.892;2023-05-16T03:27:17;7.50;83.20
47338;DHT22;33069;51.970;5.892;2023-05-16T03:29:42;7.50;83.20
47338;DHT22;33069;51.970;5.892;2023-05-16T03:32:10;7.30;82.90
47338;DHT22;33069;51.970;5.892;2023-05-16T03:34:36;7.50;83.30
47338;DHT22;33069;51.970;5.892;2023-05-16T03:37:01;7.50;82.50
47338;DHT22;33069;51.970;5.892;2023-05-16T03:39:27;7.60;82.60
47338;DHT22;33069;51.970;5.892;2023-05-16T03:41:53;7.60;82.30
47338;DHT22;33069;51.970;5.892;2023-05-16T03:44:21;7.70;82.30
47338;DHT22;33069;51.970;5.892;2023-05-16T03:46:47;7.70;81.90
47338;DHT22;33069;51.970;5.892;2023-05-16T03:49:12;7.60;81.90
47338;DHT22;33069;51.970;5.892;2023-05-16T03:51:38;7.70;82.10
47338;DHT22;33069;51.970;5.892;2023-05-16T03:54:04;7.70;82.30
47338;DHT22;33069;51.970;5.892;2023-05-16T03:56:30;7.70;82.20
47338;DHT22;33069;51.970;5.892;2023-05-16T03:58:56;7.70;82.20
47338;DHT22;33069;51.970;5.892;2023-05-16T04:01:22;7.80;82.10
47338;DHT22;33069;51.970;5.892;2023-05-16T04:04:07;8.00;82.60
47338;DHT22;33069;51.970;5.892;2023-05-16T04:06:32;8.00;82.30
47338;DHT22;33069;51.970;5.892;2023-05-16T04:08:58;8.00;82.20
47338;DHT22;33069;51.970;5.892;2023-05-16T04:11:24;8.00;82.00
47338;DHT22;33069;51.970;5.892;2023-05-16T04:13:51;8.20;82.00
47338;DHT22;33069;51.970;5.892;2023-05-16T04:16:18;8.20;82.20
47338;DHT22;33069;51.970;5.892;2023-05-16T04:18:44;8.00;82.00
47338;DHT22;33069;51.970;5.892;2023-05-16T04:21:09;8.20;82.10
47338;DHT22;33069;51.970;5.892;2023-05-16T04:23:40;8.30;82.20
47338;DHT22;33069;51.970;5.892;2023-05-16T04:26:05;8.20;82.60
47338;DHT22;33069;51.970;5.892;2023-05-16T04:28:31;8.20;82.90
47338;DHT22;33069;51.970;5.892;2023-05-16T04:30:57;8.30;82.90
47338;DHT22;33069;51.970;5.892;2023-05-16T04:33:23;8.30;82.90
47338;DHT22;33069;51.970;5.892;2023-05-16T04:35:49;8.40;82.20
47338;DHT22;33069;51.970;5.892;2023-05-16T04:38:14;8.20;82.10
47338;DHT22;33069;51.970;5.892;2023-05-16T04:40:40;8.20;82.70
47338;DHT22;33069;51.970;5.892;2023-05-16T04:43:06;8.30;83.20
47338;DHT22;33069;51.970;5.892;2023-05-16T04:45:32;8.20;82.80
47338;DHT22;33069;51.970;5.892;2023-05-16T04:47:59;8.40;82.80
47338;DHT22;33069;51.970;5.892;2023-05-16T04:50:24;8.30;83.00
47338;DHT22;33069;51.970;5.892;2023-05-16T04:52:50;8.50;82.70
47338;DHT22;33069;51.970;5.892;2023-05-16T04:55:16;8.60;82.10
47338;DHT22;33069;51.970;5.892;2023-05-16T04:57:42;8.60;81.80
47338;DHT22;33069;51.970;5.892;2023-05-16T05:00:08;8.70;81.80
47338;DHT22;33069;51.970;5.892;2023-05-16T05:02:37;8.50;81.30
47338;DHT22;33069;51.970;5.892;2023-05-16T05:05:03;8.80;80.40
47338;DHT22;33069;51.970;5.892;2023-05-16T05:07:30;8.50;80.30
47338;DHT22;33069;51.970;5.892;2023-05-16T05:09:56;8.30;80.90
47338;DHT22;33069;51.970;5.892;2023-05-16T05:12:22;8.50;81.90
47338;DHT22;33069;51.970;5.892;2023-05-16T05:14:47;8.40;81.90
47338;DHT22;33069;51.970;5.892;2023-05-16T05:17:13;8.50;81.40
47338;DHT22;33069;51.970;5.892;2023-05-16T05:19:39;8.60;81.30
47338;DHT22;33069;51.970;5.892;2023-05-16T05:22:04;8.70;80.60
47338;DHT22;33069;51.970;5.892;2023-05-16T05:24:32;8.70;81.00
47338;DHT22;33069;51.970;5.892;2023-05-16T05:26:58;8.80;80.80
47338;DHT22;33069;51.970;5.892;2023-05-16T05:29:24;9.10;80.70
47338;DHT22;33069;51.970;5.892;2023-05-16T05:31:50;9.00;78.80
47338;DHT22;33069;51.970;5.892;2023-05-16T05:34:16;8.70;80.00
47338;DHT22;33069;51.970;5.892;2023-05-16T05:36:41;8.90;79.40
47338;DHT22;33069;51.970;5.892;2023-05-16T05:39:08;8.90;79.60
47338;DHT22;33069;51.970;5.892;2023-05-16T05:41:34;9.00;78.30
47338;DHT22;33069;51.970;5.892;2023-05-16T05:44:00;9.10;77.90
47338;DHT22;33069;51.970;5.892;2023-05-16T05:46:26;9.00;77.70
47338;DHT22;33069;51.970;5.892;2023-05-16T05:48:51;8.90;77.60
47338;DHT22;33069;51.970;5.892;2023-05-16T05:51:17;8.80;78.70
47338;DHT22;33069;51.970;5.892;2023-05-16T05:53:43;8.80;79.30
47338;DHT22;33069;51.970;5.892;2023-05-16T05:56:09;9.30;79.10
47338;DHT22;33069;51.970;5.892;2023-05-16T05:58:35;8.90;79.40
47338;DHT22;33069;51.970;5.892;2023-05-16T06:01:01;8.90;79.60
47338;DHT22;33069;51.970;5.892;2023-05-16T06:03:27;8.90;79.30
47338;DHT22;33069;51.970;5.892;2023-05-16T06:05:53;8.80;78.00
47338;DHT22;33069;51.970;5.892;2023-05-16T06:08:18;8.80;78.30
47338;DHT22;33069;51.970;5.892;2023-05-16T06:10:44;8.90;78.10
47338;DHT22;33069;51.970;5.892;2023-05-16T06:13:10;9.00;78.00
47338;DHT22;33069;51.970;5.892;2023-05-16T06:15:37;9.20;78.30
47338;DHT22;33069;51.970;5.892;2023-05-16T06:18:03;9.60;77.30
47338;DHT22;33069;51.970;5.892;2023-05-16T06:20:29;9.60;76.80
47338;DHT22;33069;51.970;5.892;2023-05-16T06:22:55;9.50;77.40
47338;DHT22;33069;51.970;5.892;2023-05-16T06:25:21;9.50;77.30
47338;DHT22;33069;51.970;5.892;2023-05-16T06:27:46;9.30;77.90
47338;DHT22;33069;51.970;5.892;2023-05-16T06:30:12;9.40;78.30
47338;DHT22;33069;51.970;5.892;2023-05-16T06:32:38;9.70;78.40
47338;DHT22;33069;51.970;5.892;2023-05-16T06:35:06;9.30;77.40
47338;DHT22;33069;51.970;5.892;2023-05-16T06:37:31;9.40;77.70
47338;DHT22;33069;51.970;5.892;2023-05-16T06:40:04;9.30;78.00
47338;DHT22;33069;51.970;5.892;2023-05-16T06:42:30;9.40;77.90
47338;DHT22;33069;51.970;5.892;2023-05-16T06:44:58;9.20;77.90
47338;DHT22;33069;51.970;5.892;2023-05-16T06:55:13;9.50;77.50
47338;DHT22;33069;51.970;5.892;2023-05-16T06:57:39;9.70;76.30
47338;DHT22;33069;51.970;5.892;2023-05-16T07:00:05;9.90;75.90
47338;DHT22;33069;51.970;5.892;2023-05-16T07:02:31;10.00;75.90
47338;DHT22;33069;51.970;5.892;2023-05-16T07:04:57;9.90;75.30
47338;DHT22;33069;51.970;5.892;2023-05-16T07:07:22;10.30;75.50
47338;DHT22;33069;51.970;5.892;2023-05-16T07:09:48;10.70;74.00
47338;DHT22;33069;51.970;5.892;2023-05-16T07:12:14;10.90;71.20
47338;DHT22;33069;51.970;5.892;2023-05-16T07:14:39;10.80;70.60
47338;DHT22;33069;51.970;5.892;2023-05-16T07:17:06;11.00;71.00
47338;DHT22;33069;51.970;5.892;2023-05-16T07:19:31;11.40;69.20
47338;DHT22;33069;51.970;5.892;2023-05-16T07:21:57;11.30;67.30
47338;DHT22;33069;51.970;5.892;2023-05-16T07:24:23;11.00;65.40
47338;DHT22;33069;51.970;5.892;2023-05-16T07:26:48;10.90;64.90
47338;DHT22;33069;51.970;5.892;2023-05-16T07:29:14;10.80;65.10
47338;DHT22;33069;51.970;5.892;2023-05-16T07:31:40;10.80;67.00
47338;DHT22;33069;51.970;5.892;2023-05-16T07:34:05;10.70;66.30
47338;DHT22;33069;51.970;5.892;2023-05-16T07:36:33;10.80;64.90
47338;DHT22;33069;51.970;5.892;2023-05-16T07:38:59;10.70;66.10
47338;DHT22;33069;51.970;5.892;2023-05-16T07:41:25;10.80;63.70
47338;DHT22;33069;51.970;5.892;2023-05-16T07:43:50;10.80;64.20
47338;DHT22;33069;51.970;5.892;2023-05-16T07:46:16;11.00;65.70
47338;DHT22;33069;51.970;5.892;2023-05-16T07:48:42;11.40;62.50
47338;DHT22;33069;51.970;5.892;2023-05-16T07:51:08;11.40;63.70
47338;DHT22;33069;51.970;5.892;2023-05-16T07:53:33;11.50;62.70
47338;DHT22;33069;51.970;5.892;2023-05-16T07:55:59;11.40;62.10
47338;DHT22;33069;51.970;5.892;2023-05-16T07:58:25;11.40;64.40
47338;DHT22;33069;51.970;5.892;2023-05-16T08:00:51;11.40;61.90
47338;DHT22;33069;51.970;5.892;2023-05-16T08:03:16;11.60;61.30
47338;DHT22;33069;51.970;5.892;2023-05-16T08:05:42;11.40;62.70
47338;DHT22;33069;51.970;5.892;2023-05-16T08:08:08;11.50;63.00
47338;DHT22;33069;51.970;5.892;2023-05-16T08:10:34;11.40;64.00
47338;DHT22;33069;51.970;5.892;2023-05-16T08:12:59;11.20;61.70
47338;DHT22;33069;51.970;5.892;2023-05-16T08:15:26;11.50;62.90
47338;DHT22;33069;51.970;5.892;2023-05-16T08:17:59;11.40;62.30
47338;DHT22;33069;51.970;5.892;2023-05-16T08:20:25;11.40;61.10
47338;DHT22;33069;51.970;5.892;2023-05-16T08:22:52;11.40;62.40
47338;DHT22;33069;51.970;5.892;2023-05-16T08:25:18;11.30;62.80
47338;DHT22;33069;51.970;5.892;2023-05-16T08:27:45;11.60;62.70
47338;DHT22;33069;51.970;5.892;2023-05-16T08:30:11;11.60;61.40
47338;DHT22;33069;51.970;5.892;2023-05-16T08:32:37;11.40;62.90
47338;DHT22;33069;51.970;5.892;2023-05-16T08:35:03;11.40;65.00
47338;DHT22;33069;51.970;5.892;2023-05-16T08:37:29;11.30;66.20
47338;DHT22;33069;51.970;5.892;2023-05-16T08:39:55;11.20;65.90
47338;DHT22;33069;51.970;5.892;2023-05-16T08:42:21;11.20;67.10
47338;DHT22;33069;51.970;5.892;2023-05-16T08:44:46;11.10;65.70
47338;DHT22;33069;51.970;5.892;2023-05-16T08:47:19;11.40;67.60
47338;DHT22;33069;51.970;5.892;2023-05-16T08:49:50;11.40;65.90
47338;DHT22;33069;51.970;5.892;2023-05-16T08:52:19;11.40;65.50
47338;DHT22;33069;51.970;5.892;2023-05-16T08:54:45;11.40;63.30
47338;DHT22;33069;51.970;5.892;2023-05-16T08:57:16;11.40;63.50
47338;DHT22;33069;51.970;5.892;2023-05-16T08:59:42;11.40;60.30
47338;DHT22;33069;51.970;5.892;2023-05-16T09:02:08;11.70;60.50
47338;DHT22;33069;51.970;5.892;2023-05-16T09:04:34;11.80;61.00
47338;DHT22;33069;51.970;5.892;2023-05-16T09:07:00;11.70;59.20
47338;DHT22;33069;51.970;5.892;2023-05-16T09:09:26;11.80;61.60
47338;DHT22;33069;51.970;5.892;2023-05-16T09:11:52;11.90;59.80
47338;DHT22;33069;51.970;5.892;2023-05-16T09:14:18;12.30;59.80
47338;DHT22;33069;51.970;5.892;2023-05-16T09:16:44;12.10;60.40
47338;DHT22;33069;51.970;5.892;2023-05-16T09:19:12;12.30;59.20
47338;DHT22;33069;51.970;5.892;2023-05-16T09:21:39;12.40;58.30
47338;DHT22;33069;51.970;5.892;2023-05-16T09:24:06;12.30;60.00
47338;DHT22;33069;51.970;5.892;2023-05-16T09:26:34;12.40;60.00
47338;DHT22;33069;51.970;5.892;2023-05-16T09:28:59;12.40;58.90
47338;DHT22;33069;51.970;5.892;2023-05-16T09:31:28;12.30;59.10
47338;DHT22;33069;51.970;5.892;2023-05-16T09:34:02;12.20;59.40
47338;DHT22;33069;51.970;5.892;2023-05-16T09:36:31;12.20;60.70
47338;DHT22;33069;51.970;5.892;2023-05-16T09:38:57;12.00;61.80
47338;DHT22;33069;51.970;5.892;2023-05-16T09:41:23;11.70;62.00
47338;DHT22;33069;51.970;5.892;2023-05-16T09:43:49;11.70;64.00
47338;DHT22;33069;51.970;5.892;2023-05-16T09:46:16;11.60;62.60
47338;DHT22;33069;51.970;5.892;2023-05-16T09:48:47;11.70;63.20
47338;DHT22;33069;51.970;5.892;2023-05-16T09:51:14;11.80;61.60
47338;DHT22;33069;51.970;5.892;2023-05-16T09:53:40;12.10;60.30
47338;DHT22;33069;51.970;5.892;2023-05-16T09:56:13;12.40;59.80
47338;DHT22;33069;51.970;5.892;2023-05-16T09:58:43;12.80;62.60
47338;DHT22;33069;51.970;5.892;2023-05-16T10:01:10;13.00;56.30
47338;DHT22;33069;51.970;5.892;2023-05-16T10:03:38;12.40;55.20
47338;DHT22;33069;51.970;5.892;2023-05-16T10:06:05;12.30;56.70
47338;DHT22;33069;51.970;5.892;2023-05-16T10:08:33;12.30;56.90
47338;DHT22;33069;51.970;5.892;2023-05-16T10:11:02;12.70;57.20
47338;DHT22;33069;51.970;5.892;2023-05-16T10:13:30;13.10;54.20
47338;DHT22;33069;51.970;5.892;2023-05-16T10:15:58;13.50;55.10
47338;DHT22;33069;51.970;5.892;2023-05-16T10:18:29;14.00;53.90
47338;DHT22;33069;51.970;5.892;2023-05-16T10:21:05;13.00;52.90
47338;DHT22;33069;51.970;5.892;2023-05-16T10:23:32;12.70;55.70
47338;DHT22;33069;51.970;5.892;2023-05-16T10:26:02;12.60;58.50
47338;DHT22;33069;51.970;5.892;2023-05-16T10:28:28;12.50;56.00
47338;DHT22;33069;51.970;5.892;2023-05-16T10:30:54;12.40;55.70
47338;DHT22;33069;51.970;5.892;2023-05-16T10:33:21;12.70;57.40
47338;DHT22;33069;51.970;5.892;2023-05-16T10:35:46;12.90;56.50
47338;DHT22;33069;51.970;5.892;2023-05-16T10:38:15;13.30;55.90
47338;DHT22;33069;51.970;5.892;2023-05-16T10:40:42;13.30;52.20
47338;DHT22;33069;51.970;5.892;2023-05-16T10:43:08;13.40;52.20
47338;DHT22;33069;51.970;5.892;2023-05-16T10:45:40;13.60;53.40
47338;DHT22;33069;51.970;5.892;2023-05-16T10:48:06;13.60;51.10
47338;DHT22;33069;51.970;5.892;2023-05-16T10:50:40;13.30;52.10
47338;DHT22;33069;51.970;5.892;2023-05-16T10:53:31;13.20;52.50
47338;DHT22;33069;51.970;5.892;2023-05-16T11:01:34;13.30;55.80
47338;DHT22;33069;51.970;5.892;2023-05-16T11:04:05;13.30;53.90
47338;DHT22;33069;51.970;5.892;2023-05-16T11:06:48;13.10;55.00
47338;DHT22;33069;51.970;5.892;2023-05-16T11:09:21;13.30;56.80
47338;DHT22;33069;51.970;5.892;2023-05-16T11:14:37;13.70;52.40
47338;DHT22;33069;51.970;5.892;2023-05-16T11:17:14;13.50;56.20
47338;DHT22;33069;51.970;5.892;2023-05-16T11:27:28;13.80;52.90
47338;DHT22;33069;51.970;5.892;2023-05-16T11:32:33;13.90;53.40
47338;DHT22;33069;51.970;5.892;2023-05-16T11:34:59;13.90;55.90
47338;DHT22;33069;51.970;5.892;2023-05-16T11:37:26;14.00;54.90
47338;DHT22;33069;51.970;5.892;2023-05-16T11:39:52;14.10;54.40
47338;DHT22;33069;51.970;5.892;2023-05-16T11:42:23;14.20;55.10
47338;DHT22;33069;51.970;5.892;2023-05-16T11:44:48;14.10;53.00
47338;DHT22;33069;51.970;5.892;2023-05-16T11:47:14;13.90;52.60
47338;DHT22;33069;51.970;5.892;2023-05-16T11:49:40;13.80;52.70
47338;DHT22;33069;51.970;5.892;2023-05-16T11:52:07;13.70;51.30
47338;DHT22;33069;51.970;5.892;2023-05-16T11:54:34;13.50;54.30
47338;DHT22;33069;51.970;5.892;2023-05-16T11:56:59;13.30;53.40
47338;DHT22;33069;51.970;5.892;2023-05-16T11:59:27;13.30;54.70
47338;DHT22;33069;51.970;5.892;2023-05-16T12:01:53;13.40;54.10
47338;DHT22;33069;51.970;5.892;2023-05-16T12:04:18;13.30;54.20
47338;DHT22;33069;51.970;5.892;2023-05-16T12:06:57;13.70;53.90
47338;DHT22;33069;51.970;5.892;2023-05-16T12:09:26;13.70;52.60
47338;DHT22;33069;51.970;5.892;2023-05-16T12:11:52;14.00;53.00
47338;DHT22;33069;51.970;5.892;2023-05-16T12:14:18;14.00;51.50
47338;DHT22;33069;51.970;5.892;2023-05-16T12:16:44;13.60;50.90
47338;DHT22;33069;51.970;5.892;2023-05-16T12:19:11;13.30;50.70
47338;DHT22;33069;51.970;5.892;2023-05-16T12:21:37;13.30;53.60
47338;DHT22;33069;51.970;5.892;2023-05-16T12:24:03;13.80;51.40
47338;DHT22;33069;51.970;5.892;2023-05-16T12:26:32;14.10;52.50
47338;DHT22;33069;51.970;5.892;2023-05-16T12:28:59;14.00;53.60
47338;DHT22;33069;51.970;5.892;2023-05-16T12:31:28;14.30;53.60
47338;DHT22;33069;51.970;5.892;2023-05-16T12:33:57;14.00;52.80
47338;DHT22;33069;51.970;5.892;2023-05-16T12:36:24;14.50;53.80
47338;DHT22;33069;51.970;5.892;2023-05-16T12:38:52;14.60;51.00
47338;DHT22;33069;51.970;5.892;2023-05-16T12:41:21;14.10;51.70
47338;DHT22;33069;51.970;5.892;2023-05-16T12:43:48;13.70;51.40
47338;DHT22;33069;51.970;5.892;2023-05-16T12:46:15;13.80;50.10
47338;DHT22;33069;51.970;5.892;2023-05-16T12:48:41;13.80;54.00
47338;DHT22;33069;51.970;5.892;2023-05-16T12:51:18;13.40;54.10
47338;DHT22;33069;51.970;5.892;2023-05-16T12:53:48;13.30;57.00
47338;DHT22;33069;51.970;5.892;2023-05-16T12:56:14;13.10;55.10
47338;DHT22;33069;51.970;5.892;2023-05-16T12:58:41;12.80;55.80
47338;DHT22;33069;51.970;5.892;2023-05-16T13:01:07;12.70;55.30
47338;DHT22;33069;51.970;5.892;2023-05-16T13:03:33;12.50;56.50
47338;DHT22;33069;51.970;5.892;2023-05-16T13:06:00;12.50;56.40
47338;DHT22;33069;51.970;5.892;2023-05-16T13:08:26;12.50;58.50
47338;DHT22;33069;51.970;5.892;2023-05-16T13:10:53;12.70;57.90
47338;DHT22;33069;51.970;5.892;2023-05-16T13:13:18;12.80;58.70
47338;DHT22;33069;51.970;5.892;2023-05-16T13:15:44;13.30;59.10
47338;DHT22;33069;51.970;5.892;2023-05-16T13:18:10;13.40;59.00
47338;DHT22;33069;51.970;5.892;2023-05-16T13:20:36;13.60;59.10
47338;DHT22;33069;51.970;5.892;2023-05-16T13:23:03;13.20;59.40
47338;DHT22;33069;51.970;5.892;2023-05-16T13:25:30;13.10;59.00
47338;DHT22;33069;51.970;5.892;2023-05-16T13:27:55;13.70;59.20
47338;DHT22;33069;51.970;5.892;2023-05-16T13:30:21;14.20;56.20
47338;DHT22;33069;51.970;5.892;2023-05-16T13:32:47;13.40;56.50
47338;DHT22;33069;51.970;5.892;2023-05-16T13:35:13;13.40;57.00
47338;DHT22;33069;51.970;5.892;2023-05-16T13:37:39;13.80;57.60
47338;DHT22;33069;51.970;5.892;2023-05-16T13:40:06;13.60;57.10
47338;DHT22;33069;51.970;5.892;2023-05-16T13:42:36;13.70;58.80
47338;DHT22;33069;51.970;5.892;2023-05-16T13:45:04;13.20;59.20
47338;DHT22;33069;51.970;5.892;2023-05-16T13:47:33;13.20;59.10
47338;DHT22;33069;51.970;5.892;2023-05-16T13:49:58;13.30;58.60
47338;DHT22;33069;51.970;5.892;2023-05-16T13:52:28;13.10;59.80
47338;DHT22;33069;51.970;5.892;2023-05-16T13:54:54;13.10;59.60
47338;DHT22;33069;51.970;5.892;2023-05-16T13:57:20;13.10;59.50
47338;DHT22;33069;51.970;5.892;2023-05-16T13:59:47;12.80;60.90
47338;DHT22;33069;51.970;5.892;2023-05-16T14:02:13;12.80;60.40
47338;DHT22;33069;51.970;5.892;2023-05-16T14:04:39;12.90;61.70
47338;DHT22;33069;51.970;5.892;2023-05-16T14:07:05;12.80;61.60
47338;DHT22;33069;51.970;5.892;2023-05-16T14:09:31;13.00;62.10
47338;DHT22;33069;51.970;5.892;2023-05-16T14:11:59;12.80;62.30
47338;DHT22;33069;51.970;5.892;2023-05-16T14:14:28;12.80;61.30
47338;DHT22;33069;51.970;5.892;2023-05-16T14:16:54;13.00;60.60
47338;DHT22;33069;51.970;5.892;2023-05-16T14:19:20;12.90;60.50
47338;DHT22;33069;51.970;5.892;2023-05-16T14:21:46;12.60;61.70
47338;DHT22;33069;51.970;5.892;2023-05-16T14:24:12;12.80;61.30
47338;DHT22;33069;51.970;5.892;2023-05-16T14:26:37;12.70;62.30
47338;DHT22;33069;51.970;5.892;2023-05-16T14:29:03;12.80;61.30
47338;DHT22;33069;51.970;5.892;2023-05-16T14:31:29;12.70;61.50
47338;DHT22;33069;51.970;5.892;2023-05-16T14:33:55;12.90;60.90
47338;DHT22;33069;51.970;5.892;2023-05-16T14:36:20;13.00;61.10
47338;DHT22;33069;51.970;5.892;2023-05-16T14:38:46;13.00;61.80
47338;DHT22;33069;51.970;5.892;2023-05-16T14:41:13;13.30;61.00
47338;DHT22;33069;51.970;5.892;2023-05-16T14:43:39;13.20;62.50
47338;DHT22;33069;51.970;5.892;2023-05-16T14:46:05;13.00;62.70
47338;DHT22;33069;51.970;5.892;2023-05-16T14:48:30;13.20;62.60
47338;DHT22;33069;51.970;5.892;2023-05-16T14:50:57;13.30;61.20
47338;DHT22;33069;51.970;5.892;2023-05-16T14:53:23;13.00;61.40
47338;DHT22;33069;51.970;5.892;2023-05-16T14:55:49;13.20;62.30
47338;DHT22;33069;51.970;5.892;2023-05-16T14:58:14;13.40;61.30
47338;DHT22;33069;51.970;5.892;2023-05-16T15:00:40;13.40;61.10
47338;DHT22;33069;51.970;5.892;2023-05-16T15:03:06;13.60;61.10
47338;DHT22;33069;51.970;5.892;2023-05-16T15:05:32;13.30;60.90
47338;DHT22;33069;51.970;5.892;2023-05-16T15:07:58;13.30;61.60
47338;DHT22;33069;51.970;5.892;2023-05-16T15:10:25;13.70;60.00
47338;DHT22;33069;51.970;5.892;2023-05-16T15:12:51;13.20;60.30
47338;DHT22;33069;51.970;5.892;2023-05-16T15:15:17;13.00;61.80
47338;DHT22;33069;51.970;5.892;2023-05-16T15:17:42;13.00;61.20
47338;DHT22;33069;51.970;5.892;2023-05-16T15:20:09;12.80;61.80
47338;DHT22;33069;51.970;5.892;2023-05-16T15:22:38;12.90;62.60
47338;DHT22;33069;51.970;5.892;2023-05-16T15:25:04;12.80;60.70
47338;DHT22;33069;51.970;5.892;2023-05-16T15:27:30;12.80;61.30
47338;DHT22;33069;51.970;5.892;2023-05-16T15:29:57;12.70;60.80
47338;DHT22;33069;51.970;5.892;2023-05-16T15:32:22;12.90;61.70
47338;DHT22;33069;51.970;5.892;2023-05-16T15:34:48;13.00;61.20
47338;DHT22;33069;51.970;5.892;2023-05-16T15:37:14;13.20;60.90
47338;DHT22;33069;51.970;5.892;2023-05-16T15:39:40;13.20;60.80
47338;DHT22;33069;51.970;5.892;2023-05-16T15:42:07;13.00;61.20
47338;DHT22;33069;51.970;5.892;2023-05-16T15:44:33;12.90;60.90
47338;DHT22;33069;51.970;5.892;2023-05-16T15:47:00;12.90;61.20
47338;DHT22;33069;51.970;5.892;2023-05-16T15:49:26;12.80;61.00
47338;DHT22;33069;51.970;5.892;2023-05-16T15:51:53;12.90;61.20
47338;DHT22;33069;51.970;5.892;2023-05-16T15:54:19;12.70;62.10
47338;DHT22;33069;51.970;5.892;2023-05-16T15:56:45;12.70;61.60
47338;DHT22;33069;51.970;5.892;2023-05-16T15:59:11;12.70;62.00
47338;DHT22;33069;51.970;5.892;2023-05-16T16:01:36;12.80;61.80
47338;DHT22;33069;51.970;5.892;2023-05-16T16:04:02;12.80;62.40
47338;DHT22;33069;51.970;5.892;2023-05-16T16:06:28;13.00;61.90
47338;DHT22;33069;51.970;5.892;2023-05-16T16:08:54;13.10;61.20
47338;DHT22;33069;51.970;5.892;2023-05-16T16:11:20;13.10;60.80
47338;DHT22;33069;51.970;5.892;2023-05-16T16:13:47;12.90;61.30
47338;DHT22;33069;51.970;5.892;2023-05-16T16:16:12;12.80;61.50
47338;DHT22;33069;51.970;5.892;2023-05-16T16:18:40;12.80;62.20
47338;DHT22;33069;51.970;5.892;2023-05-16T16:21:05;12.90;61.30
47338;DHT22;33069;51.970;5.892;2023-05-16T16:23:32;12.80;62.50
47338;DHT22;33069;51.970;5.892;2023-05-16T16:25:57;12.80;62.90